KAL892 RKSI-RKPK
Flight info
| Callsign | KAL892 |
|---|---|
| Flight time | 0h 43m |
| Altitude | 25000 |
| Route | OSPOT2C OSPOT Y782 TGU Z83 MASTA GAYHA3 |
| Aircraft | B77W/H-SDE1E2E3FGHIJ2J3J4J5M1RWXY/LB1D1 |
Departure
| Time | 2026-05-06 14:31 |
|---|---|
| Airport | Incheon International Airport (RKSI) |
Arrival
| Time | 2026-05-06 15:14 |
|---|---|
| Airport | Gimhae International Airport (RKPK) |
| Time | Latitude | Longitude | Altitude | Speed | Heading |
|---|---|---|---|---|---|
| 2026-05-06 13:49 | 37.45379 | 126.45230 | 37 ft | 0 kts | 244° |
| 2026-05-06 14:17 | 37.45381 | 126.45232 | 37 ft | 2 kts | 244° |
| 2026-05-06 14:17 | 37.45391 | 126.45262 | 37 ft | 4 kts | 253° |
| 2026-05-06 14:17 | 37.45396 | 126.45294 | 37 ft | 4 kts | 271° |
| 2026-05-06 14:18 | 37.45392 | 126.45321 | 36 ft | 4 kts | 302° |
| 2026-05-06 14:18 | 37.45382 | 126.45335 | 35 ft | 3 kts | 346° |
| 2026-05-06 14:18 | 37.45379 | 126.45336 | 35 ft | 0 kts | 348° |
| 2026-05-06 14:23 | 37.45380 | 126.45336 | 37 ft | 1 kts | 348° |
| 2026-05-06 14:23 | 37.45405 | 126.45328 | 37 ft | 8 kts | 345° |
| 2026-05-06 14:23 | 37.45516 | 126.45286 | 37 ft | 19 kts | 343° |
| 2026-05-06 14:23 | 37.45641 | 126.45288 | 37 ft | 19 kts | 40° |
| 2026-05-06 14:24 | 37.45668 | 126.45328 | 37 ft | 0 kts | 52° |
| 2026-05-06 14:25 | 37.45669 | 126.45329 | 37 ft | 1 kts | 52° |
| 2026-05-06 14:25 | 37.45696 | 126.45360 | 37 ft | 12 kts | 29° |
| 2026-05-06 14:25 | 37.45809 | 126.45326 | 37 ft | 23 kts | 331° |
| 2026-05-06 14:25 | 37.45967 | 126.45184 | 37 ft | 33 kts | 324° |
| 2026-05-06 14:26 | 37.46161 | 126.45013 | 37 ft | 33 kts | 324° |
| 2026-05-06 14:26 | 37.46346 | 126.44848 | 37 ft | 32 kts | 325° |
| 2026-05-06 14:26 | 37.46522 | 126.44691 | 37 ft | 30 kts | 324° |
| 2026-05-06 14:26 | 37.46692 | 126.44539 | 37 ft | 30 kts | 324° |
| 2026-05-06 14:27 | 37.46863 | 126.44388 | 37 ft | 30 kts | 324° |
| 2026-05-06 14:27 | 37.47033 | 126.44236 | 37 ft | 30 kts | 324° |
| 2026-05-06 14:27 | 37.47203 | 126.44084 | 36 ft | 30 kts | 324° |
| 2026-05-06 14:27 | 37.47373 | 126.43933 | 37 ft | 30 kts | 324° |
| 2026-05-06 14:28 | 37.47544 | 126.43782 | 37 ft | 30 kts | 325° |
| 2026-05-06 14:28 | 37.47715 | 126.43632 | 37 ft | 30 kts | 325° |
| 2026-05-06 14:28 | 37.47883 | 126.43478 | 37 ft | 30 kts | 323° |
| 2026-05-06 14:28 | 37.47975 | 126.43400 | 37 ft | 10 kts | 332° |
| 2026-05-06 14:29 | 37.48036 | 126.43427 | 37 ft | 10 kts | 47° |
| 2026-05-06 14:29 | 37.48080 | 126.43496 | 37 ft | 10 kts | 54° |
| 2026-05-06 14:29 | 37.48122 | 126.43568 | 37 ft | 10 kts | 54° |
| 2026-05-06 14:29 | 37.48131 | 126.43651 | 37 ft | 10 kts | 112° |
| 2026-05-06 14:30 | 37.48083 | 126.43716 | 37 ft | 2 kts | 141° |
| 2026-05-06 14:30 | 37.48082 | 126.43717 | 37 ft | 1 kts | 141° |
| 2026-05-06 14:30 | 37.47977 | 126.43814 | 37 ft | 52 kts | 144° |
| 2026-05-06 14:31 | 37.47462 | 126.44271 | 38 ft | 126 kts | 144° |
| 2026-05-06 14:31 | 37.46579 | 126.45052 | 54 ft | 180 kts | 144° |
| 2026-05-06 14:31 | 37.45524 | 126.45990 | 537 ft | 185 kts | 146° |
| 2026-05-06 14:31 | 37.44472 | 126.46880 | 1255 ft | 183 kts | 151° |
| 2026-05-06 14:32 | 37.43553 | 126.47613 | 1814 ft | 187 kts | 156° |
| 2026-05-06 14:32 | 37.42427 | 126.48486 | 2455 ft | 192 kts | 153° |
| 2026-05-06 14:32 | 37.41339 | 126.49470 | 3134 ft | 193 kts | 148° |
| 2026-05-06 14:32 | 37.40396 | 126.50687 | 3799 ft | 198 kts | 131° |
| 2026-05-06 14:33 | 37.39767 | 126.52255 | 4371 ft | 207 kts | 115° |
| 2026-05-06 14:33 | 37.39207 | 126.54041 | 4590 ft | 232 kts | 120° |
| 2026-05-06 14:33 | 37.38378 | 126.55903 | 4902 ft | 253 kts | 127° |
| 2026-05-06 14:33 | 37.37335 | 126.57756 | 5012 ft | 261 kts | 131° |
| 2026-05-06 14:34 | 37.36076 | 126.59293 | 5044 ft | 255 kts | 159° |
| 2026-05-06 14:34 | 37.34348 | 126.59950 | 5594 ft | 261 kts | 168° |
| 2026-05-06 14:34 | 37.32599 | 126.60584 | 6362 ft | 269 kts | 165° |
| 2026-05-06 14:34 | 37.30844 | 126.61437 | 7093 ft | 276 kts | 149° |
| 2026-05-06 14:35 | 37.29458 | 126.63168 | 7726 ft | 287 kts | 130° |
| 2026-05-06 14:35 | 37.28224 | 126.65190 | 8471 ft | 294 kts | 130° |
| 2026-05-06 14:35 | 37.26971 | 126.67252 | 9287 ft | 299 kts | 130° |
| 2026-05-06 14:35 | 37.25691 | 126.69341 | 10086 ft | 305 kts | 130° |
| 2026-05-06 14:36 | 37.24371 | 126.71476 | 10600 ft | 320 kts | 130° |
| 2026-05-06 14:36 | 37.22937 | 126.73768 | 10811 ft | 347 kts | 130° |
| 2026-05-06 14:36 | 37.21382 | 126.76236 | 11019 ft | 374 kts | 130° |
| 2026-05-06 14:36 | 37.19724 | 126.78858 | 11499 ft | 390 kts | 130° |
| 2026-05-06 14:37 | 37.18015 | 126.81557 | 12214 ft | 400 kts | 130° |
| 2026-05-06 14:37 | 37.16271 | 126.84305 | 13095 ft | 406 kts | 131° |
| 2026-05-06 14:37 | 37.14495 | 126.87097 | 13964 ft | 412 kts | 131° |
| 2026-05-06 14:37 | 37.12700 | 126.89915 | 14720 ft | 417 kts | 131° |
| 2026-05-06 14:38 | 37.10875 | 126.92775 | 15529 ft | 422 kts | 131° |
| 2026-05-06 14:38 | 37.09030 | 126.95663 | 16338 ft | 427 kts | 131° |
| 2026-05-06 14:38 | 37.07161 | 126.98586 | 17134 ft | 432 kts | 131° |
| 2026-05-06 14:38 | 37.05267 | 127.01544 | 17912 ft | 438 kts | 132° |
| 2026-05-06 14:39 | 37.03353 | 127.04531 | 18608 ft | 443 kts | 132° |
| 2026-05-06 14:39 | 37.01412 | 127.07557 | 19232 ft | 449 kts | 132° |
| 2026-05-06 14:39 | 36.99445 | 127.10622 | 19914 ft | 453 kts | 132° |
| 2026-05-06 14:39 | 36.97462 | 127.13710 | 20585 ft | 458 kts | 132° |
| 2026-05-06 14:40 | 36.95460 | 127.16825 | 21250 ft | 463 kts | 133° |
| 2026-05-06 14:40 | 36.93432 | 127.19976 | 21877 ft | 468 kts | 133° |
| 2026-05-06 14:40 | 36.91384 | 127.23158 | 22565 ft | 471 kts | 133° |
| 2026-05-06 14:40 | 36.89336 | 127.26338 | 23422 ft | 469 kts | 133° |
| 2026-05-06 14:41 | 36.87294 | 127.29507 | 24244 ft | 467 kts | 133° |
| 2026-05-06 14:41 | 36.85254 | 127.32665 | 24890 ft | 467 kts | 133° |
| 2026-05-06 14:41 | 36.83171 | 127.35755 | 25040 ft | 465 kts | 138° |
| 2026-05-06 14:41 | 36.80895 | 127.38607 | 25051 ft | 463 kts | 141° |
| 2026-05-06 14:42 | 36.78579 | 127.41393 | 25044 ft | 463 kts | 141° |
| 2026-05-06 14:42 | 36.76264 | 127.44179 | 25048 ft | 462 kts | 141° |
| 2026-05-06 14:42 | 36.73960 | 127.46986 | 25053 ft | 462 kts | 140° |
| 2026-05-06 14:42 | 36.71698 | 127.49760 | 25047 ft | 462 kts | 140° |
| 2026-05-06 14:43 | 36.69380 | 127.52605 | 25046 ft | 463 kts | 140° |
| 2026-05-06 14:43 | 36.67083 | 127.55417 | 25053 ft | 463 kts | 140° |
| 2026-05-06 14:43 | 36.64782 | 127.58229 | 25050 ft | 463 kts | 140° |
| 2026-05-06 14:43 | 36.62485 | 127.61033 | 25041 ft | 463 kts | 140° |
| 2026-05-06 14:44 | 36.60211 | 127.63809 | 25038 ft | 463 kts | 140° |
| 2026-05-06 14:44 | 36.57912 | 127.66613 | 25038 ft | 463 kts | 140° |
| 2026-05-06 14:44 | 36.55609 | 127.69419 | 25033 ft | 463 kts | 140° |
| 2026-05-06 14:45 | 36.51010 | 127.75018 | 25035 ft | 463 kts | 140° |
| 2026-05-06 14:45 | 36.48704 | 127.77822 | 25037 ft | 463 kts | 140° |
| 2026-05-06 14:45 | 36.46400 | 127.80619 | 25034 ft | 463 kts | 140° |
| 2026-05-06 14:45 | 36.44099 | 127.83411 | 25032 ft | 463 kts | 140° |
| 2026-05-06 14:46 | 36.41796 | 127.86202 | 25036 ft | 463 kts | 140° |
| 2026-05-06 14:46 | 36.39497 | 127.88989 | 25027 ft | 458 kts | 140° |
| 2026-05-06 14:46 | 36.37243 | 127.91723 | 25015 ft | 446 kts | 140° |
| 2026-05-06 14:46 | 36.35051 | 127.94380 | 25025 ft | 438 kts | 140° |
| 2026-05-06 14:47 | 36.32874 | 127.97010 | 25026 ft | 436 kts | 140° |
| 2026-05-06 14:47 | 36.30707 | 127.99625 | 25033 ft | 435 kts | 140° |
| 2026-05-06 14:47 | 36.28539 | 128.02241 | 25036 ft | 434 kts | 140° |
| 2026-05-06 14:47 | 36.26377 | 128.04848 | 25038 ft | 434 kts | 140° |
| 2026-05-06 14:48 | 36.24213 | 128.07451 | 25040 ft | 433 kts | 140° |
| 2026-05-06 14:48 | 36.22053 | 128.10047 | 25051 ft | 434 kts | 140° |
| 2026-05-06 14:48 | 36.19886 | 128.12650 | 25044 ft | 434 kts | 140° |
| 2026-05-06 14:48 | 36.17713 | 128.15259 | 25038 ft | 435 kts | 140° |
| 2026-05-06 14:49 | 36.15543 | 128.17864 | 25052 ft | 435 kts | 140° |
| 2026-05-06 14:49 | 36.13367 | 128.20475 | 25052 ft | 435 kts | 140° |
| 2026-05-06 14:49 | 36.11222 | 128.23045 | 25050 ft | 436 kts | 140° |
| 2026-05-06 14:49 | 36.09042 | 128.25655 | 25048 ft | 436 kts | 140° |
| 2026-05-06 14:50 | 36.06840 | 128.28291 | 25055 ft | 436 kts | 140° |
| 2026-05-06 14:50 | 36.04657 | 128.30902 | 25046 ft | 437 kts | 140° |
| 2026-05-06 14:50 | 36.02473 | 128.33510 | 25040 ft | 437 kts | 140° |
| 2026-05-06 14:50 | 36.00315 | 128.36087 | 25049 ft | 437 kts | 140° |
| 2026-05-06 14:51 | 35.98134 | 128.38688 | 25054 ft | 436 kts | 140° |
| 2026-05-06 14:51 | 35.95951 | 128.41290 | 25052 ft | 436 kts | 140° |
| 2026-05-06 14:51 | 35.93765 | 128.43894 | 25053 ft | 436 kts | 140° |
| 2026-05-06 14:51 | 35.91582 | 128.46492 | 25052 ft | 436 kts | 140° |
| 2026-05-06 14:52 | 35.89393 | 128.49096 | 25052 ft | 436 kts | 140° |
| 2026-05-06 14:52 | 35.87211 | 128.51689 | 25048 ft | 436 kts | 140° |
| 2026-05-06 14:52 | 35.85028 | 128.54279 | 25049 ft | 436 kts | 140° |
| 2026-05-06 14:52 | 35.82760 | 128.56711 | 25031 ft | 427 kts | 152° |
| 2026-05-06 14:53 | 35.80117 | 128.58234 | 25054 ft | 416 kts | 169° |
| 2026-05-06 14:53 | 35.77297 | 128.58826 | 25054 ft | 408 kts | 184° |
| 2026-05-06 14:53 | 35.74495 | 128.58624 | 25058 ft | 402 kts | 190° |
| 2026-05-06 14:53 | 35.71704 | 128.58317 | 25053 ft | 405 kts | 190° |
| 2026-05-06 14:54 | 35.68890 | 128.58020 | 25051 ft | 408 kts | 189° |
| 2026-05-06 14:54 | 35.66057 | 128.57739 | 25062 ft | 409 kts | 189° |
| 2026-05-06 14:54 | 35.63251 | 128.57477 | 25047 ft | 397 kts | 189° |
| 2026-05-06 14:54 | 35.60548 | 128.57236 | 25039 ft | 383 kts | 189° |
| 2026-05-06 14:55 | 35.57935 | 128.57004 | 25039 ft | 368 kts | 189° |
| 2026-05-06 14:55 | 35.55434 | 128.56780 | 25045 ft | 354 kts | 189° |
| 2026-05-06 14:55 | 35.52993 | 128.56557 | 25057 ft | 351 kts | 189° |
| 2026-05-06 14:55 | 35.50560 | 128.56335 | 25069 ft | 351 kts | 189° |
| 2026-05-06 14:56 | 35.48116 | 128.56114 | 25068 ft | 352 kts | 189° |
| 2026-05-06 14:56 | 35.45672 | 128.55893 | 25070 ft | 353 kts | 189° |
| 2026-05-06 14:56 | 35.43217 | 128.55669 | 25072 ft | 354 kts | 189° |
| 2026-05-06 14:56 | 35.40759 | 128.55446 | 25061 ft | 354 kts | 189° |
| 2026-05-06 14:57 | 35.38299 | 128.55222 | 25073 ft | 354 kts | 189° |
| 2026-05-06 14:57 | 35.35841 | 128.55208 | 25056 ft | 358 kts | 172° |
| 2026-05-06 14:57 | 35.33537 | 128.56433 | 25005 ft | 369 kts | 146° |
| 2026-05-06 14:57 | 35.31661 | 128.58557 | 24674 ft | 364 kts | 140° |
| 2026-05-06 14:58 | 35.29710 | 128.60467 | 24084 ft | 356 kts | 154° |
| 2026-05-06 14:58 | 35.27471 | 128.61709 | 23455 ft | 353 kts | 167° |
| 2026-05-06 14:58 | 35.25110 | 128.62493 | 22830 ft | 351 kts | 172° |
| 2026-05-06 14:58 | 35.22728 | 128.63131 | 22307 ft | 349 kts | 173° |
| 2026-05-06 14:59 | 35.20417 | 128.63995 | 21800 ft | 352 kts | 154° |
| 2026-05-06 14:59 | 35.18556 | 128.65944 | 21279 ft | 357 kts | 129° |
| 2026-05-06 14:59 | 35.16982 | 128.68250 | 20795 ft | 350 kts | 143° |
| 2026-05-06 14:59 | 35.14936 | 128.69733 | 20290 ft | 339 kts | 167° |
| 2026-05-06 15:00 | 35.12686 | 128.70131 | 19816 ft | 327 kts | 189° |
| 2026-05-06 15:00 | 35.10500 | 128.69572 | 19376 ft | 319 kts | 201° |
| 2026-05-06 15:00 | 35.08393 | 128.68662 | 18928 ft | 316 kts | 204° |
| 2026-05-06 15:00 | 35.06356 | 128.67687 | 18507 ft | 314 kts | 205° |
| 2026-05-06 15:01 | 35.04335 | 128.66697 | 18037 ft | 312 kts | 205° |
| 2026-05-06 15:01 | 35.02329 | 128.65705 | 17601 ft | 310 kts | 205° |
| 2026-05-06 15:01 | 35.01011 | 128.65050 | 17316 ft | 308 kts | 205° |
| 2026-05-06 15:01 | 34.98400 | 128.63748 | 16731 ft | 305 kts | 205° |
| 2026-05-06 15:02 | 34.97073 | 128.63083 | 16461 ft | 303 kts | 205° |
| 2026-05-06 15:02 | 34.94478 | 128.61862 | 15919 ft | 302 kts | 195° |
| 2026-05-06 15:02 | 34.92368 | 128.61789 | 15416 ft | 309 kts | 170° |
| 2026-05-06 15:02 | 34.90992 | 128.62376 | 15139 ft | 313 kts | 153° |
| 2026-05-06 15:03 | 34.89283 | 128.64011 | 14749 ft | 314 kts | 136° |
| 2026-05-06 15:03 | 34.87818 | 128.65986 | 14371 ft | 313 kts | 133° |
| 2026-05-06 15:03 | 34.86421 | 128.68010 | 14001 ft | 312 kts | 132° |
| 2026-05-06 15:03 | 34.85039 | 128.70036 | 13599 ft | 310 kts | 132° |
| 2026-05-06 15:04 | 34.83225 | 128.72709 | 13101 ft | 307 kts | 132° |
| 2026-05-06 15:04 | 34.81878 | 128.74704 | 12719 ft | 304 kts | 131° |
| 2026-05-06 15:04 | 34.80810 | 128.76914 | 12288 ft | 306 kts | 108° |
| 2026-05-06 15:04 | 34.80554 | 128.78637 | 11999 ft | 307 kts | 91° |
| 2026-05-06 15:05 | 34.80671 | 128.81218 | 11631 ft | 305 kts | 84° |
| 2026-05-06 15:05 | 34.80943 | 128.83769 | 11267 ft | 303 kts | 82° |
| 2026-05-06 15:05 | 34.81297 | 128.86290 | 10890 ft | 302 kts | 72° |
| 2026-05-06 15:05 | 34.82279 | 128.88511 | 10489 ft | 299 kts | 46° |
| 2026-05-06 15:06 | 34.83924 | 128.89979 | 10103 ft | 293 kts | 19° |
| 2026-05-06 15:06 | 34.85887 | 128.90422 | 9686 ft | 285 kts | 352° |
| 2026-05-06 15:06 | 34.87756 | 128.89801 | 9293 ft | 276 kts | 330° |
| 2026-05-06 15:06 | 34.89407 | 128.88697 | 8945 ft | 273 kts | 326° |
| 2026-05-06 15:07 | 34.91044 | 128.87478 | 8606 ft | 271 kts | 325° |
| 2026-05-06 15:07 | 34.92643 | 128.86263 | 8266 ft | 278 kts | 325° |
| 2026-05-06 15:07 | 34.94304 | 128.84987 | 7929 ft | 286 kts | 325° |
| 2026-05-06 15:07 | 34.95946 | 128.83598 | 7586 ft | 285 kts | 313° |
| 2026-05-06 15:08 | 34.97032 | 128.81639 | 7240 ft | 276 kts | 295° |
| 2026-05-06 15:08 | 34.97997 | 128.79629 | 6958 ft | 274 kts | 303° |
| 2026-05-06 15:08 | 34.99151 | 128.77808 | 6762 ft | 267 kts | 306° |
| 2026-05-06 15:08 | 35.00523 | 128.76336 | 6358 ft | 268 kts | 335° |
| 2026-05-06 15:09 | 35.02352 | 128.76100 | 6100 ft | 267 kts | 14° |
| 2026-05-06 15:09 | 35.03876 | 128.77231 | 6037 ft | 253 kts | 50° |
| 2026-05-06 15:09 | 35.04925 | 128.78862 | 5894 ft | 240 kts | 48° |
| 2026-05-06 15:09 | 35.06098 | 128.80325 | 5461 ft | 244 kts | 41° |
| 2026-05-06 15:10 | 35.07383 | 128.81659 | 4951 ft | 240 kts | 38° |
| 2026-05-06 15:10 | 35.08679 | 128.82902 | 4439 ft | 235 kts | 37° |
| 2026-05-06 15:10 | 35.09969 | 128.84102 | 3916 ft | 231 kts | 37° |
| 2026-05-06 15:10 | 35.11236 | 128.85286 | 3416 ft | 228 kts | 38° |
| 2026-05-06 15:11 | 35.12470 | 128.86467 | 2995 ft | 223 kts | 38° |
| 2026-05-06 15:11 | 35.13696 | 128.87639 | 2927 ft | 223 kts | 37° |
| 2026-05-06 15:11 | 35.14913 | 128.88757 | 2716 ft | 215 kts | 33° |
| 2026-05-06 15:11 | 35.16230 | 128.89388 | 2433 ft | 196 kts | 2° |
| 2026-05-06 15:12 | 35.17516 | 128.89432 | 2181 ft | 174 kts | 357° |
| 2026-05-06 15:12 | 35.18690 | 128.89496 | 1799 ft | 164 kts | 360° |
| 2026-05-06 15:12 | 35.19796 | 128.89625 | 1447 ft | 157 kts | 5° |
| 2026-05-06 15:12 | 35.20804 | 128.90090 | 1273 ft | 158 kts | 36° |
| 2026-05-06 15:13 | 35.21504 | 128.91109 | 1109 ft | 156 kts | 60° |
| 2026-05-06 15:13 | 35.21730 | 128.92364 | 910 ft | 154 kts | 104° |
| 2026-05-06 15:13 | 35.21087 | 128.93290 | 543 ft | 152 kts | 172° |
| 2026-05-06 15:13 | 35.19961 | 128.93448 | 231 ft | 162 kts | 175° |
| 2026-05-06 15:14 | 35.18895 | 128.93584 | 31 ft | 145 kts | 175° |
| 2026-05-06 15:14 | 35.18006 | 128.93691 | 28 ft | 107 kts | 174° |
| 2026-05-06 15:14 | 35.17418 | 128.93768 | 28 ft | 59 kts | 174° |
| 2026-05-06 15:14 | 35.17071 | 128.93877 | 29 ft | 45 kts | 140° |
| 2026-05-06 15:15 | 35.16968 | 128.94154 | 25 ft | 29 kts | 83° |
| 2026-05-06 15:15 | 35.16991 | 128.94399 | 26 ft | 29 kts | 83° |
| 2026-05-06 15:15 | 35.17078 | 128.94499 | 25 ft | 16 kts | 353° |
| 2026-05-06 15:15 | 35.17173 | 128.94509 | 25 ft | 16 kts | 41° |
| 2026-05-06 15:16 | 35.17186 | 128.94538 | 25 ft | 0 kts | 79° |